| Date | Time | Temp. (oF) | Dew Point (oF) | Rel. Hum. (%) | Press. (in.) | Wind Dir. | Wind Speed (mph) | Hourly Rainfall (in.) |
|
|---|---|---|---|---|---|---|---|---|---|
| 1 | 09/06 | 00:00 | 60 | 56 | 88 | 30.10 | WNW | 0 | 0.00 |
| 2 | 09/05 | 23:00 | 62 | 57 | 85 | 30.10 | N | 1 | 0.00 |
| 3 | 09/05 | 22:00 | 64 | 59 | 84 | 30.09 | NW | 2 | 0.00 |
| 4 | 09/05 | 21:00 | 65 | 58 | 80 | 30.07 | W | 3 | 0.00 |
| 5 | 09/05 | 20:00 | 68 | 58 | 73 | 30.05 | WNW | 2 | 0.00 |
| 6 | 09/05 | 19:00 | 70 | 58 | 66 | 30.02 | NW | 4 | 0.00 |
| 7 | 09/05 | 18:00 | 73 | 59 | 62 | 30.01 | NW | 4 | 0.00 |
| 8 | 09/05 | 17:00 | 73 | 57 | 59 | 30.00 | WNW | 4 | 0.00 |
| 9 | 09/05 | 16:00 | 73 | 58 | 60 | 30.01 | WNW | 4 | 0.00 |
| 10 | 09/05 | 15:00 | 71 | 56 | 60 | 30.03 | N | 5 | 0.00 |
| 11 | 09/05 | 14:00 | 70 | 57 | 65 | 30.05 | NW | 7 | 0.00 |
| 12 | 09/05 | 13:00 | 71 | 57 | 63 | 30.04 | NNW | 7 | 0.00 |
| 13 | 09/05 | 12:00 | 71 | 57 | 63 | 30.04 | N | 10 | 0.00 |
| 14 | 09/05 | 11:00 | 71 | 59 | 68 | 30.05 | NW | 6 | 0.00 |
| 15 | 09/05 | 10:00 | 68 | 60 | 76 | 30.04 | N | 5 | 0.00 |
| 16 | 09/05 | 09:00 | 65 | 60 | 85 | 30.02 | WSW | 5 | 0.00 |
| 17 | 09/05 | 08:00 | 63 | 60 | 92 | 30.01 | WNW | 4 | 0.00 |
| 18 | 09/05 | 07:00 | 61 | 59 | 94 | 29.98 | NW | 2 | 0.00 |
| 19 | 09/05 | 06:00 | 63 | 60 | 93 | 29.95 | WNW | 2 | 0.00 |
| 20 | 09/05 | 05:00 | 64 | 61 | 91 | 29.93 | W | 1 | 0.00 |
| 21 | 09/05 | 04:00 | 64 | 61 | 91 | 29.91 | WNW | 5 | 0.00 |
| 22 | 09/05 | 03:00 | 65 | 62 | 93 | 29.90 | WNW | 4 | 0.00 |
| 23 | 09/05 | 02:00 | 66 | 64 | 94 | 29.90 | WNW | 2 | 0.00 |
| 24 | 09/05 | 01:00 | 66 | 65 | 98 | 29.89 | WNW | 7 | 0.00 |